Terminal Aerodrome Forecast
Issued by NWS Charleston, WV

Current Version | Previous Version | Graphics & Text | Print | Product List | Glossary On
Versions: 1 2 3 4 5 6 7 8 9 10 11 12 13 14 15 16 17 18 19 20 21 22 23 24
000
FTUS41 KRLX 201700
TAFBKW
TAF
KBKW 201722Z 2018/2118 23016G27KT P6SM BKN045
     FM201900 23014G25KT P6SM VCTS OVC050CB
     FM202000 25011G22KT 6SM TSRA BR BKN035CB
     FM210200 27010G22KT P6SM VCTS BKN025CB
     FM210500 28009G18KT P6SM BKN015
     FM211200 27007KT P6SM SCT025
     FM211400 27009G19KT P6SM SCT025=

USA.gov is the U.S. government's official web portal to all federal, state and local government web resources and services.